sensor_id;sensor_type;location;lat;lon;timestamp;P1;durP1;ratioP1;P2;durP2;ratioP2
6763;SDS011;47432;48.760;9.178;2023-03-01T00:02:11;25.87;;;13.30;;
6763;SDS011;47432;48.760;9.178;2023-03-01T00:04:37;25.50;;;14.30;;
6763;SDS011;47432;48.760;9.178;2023-03-01T00:07:03;22.73;;;12.37;;
6763;SDS011;47432;48.760;9.178;2023-03-01T00:09:28;26.80;;;12.53;;
6763;SDS011;47432;48.760;9.178;2023-03-01T00:11:54;24.80;;;12.73;;
6763;SDS011;47432;48.760;9.178;2023-03-01T00:14:20;23.43;;;13.90;;
6763;SDS011;47432;48.760;9.178;2023-03-01T00:16:46;26.60;;;14.77;;
6763;SDS011;47432;48.760;9.178;2023-03-01T00:19:13;27.87;;;12.70;;
6763;SDS011;47432;48.760;9.178;2023-03-01T00:21:40;28.17;;;13.67;;
6763;SDS011;47432;48.760;9.178;2023-03-01T00:24:06;21.80;;;12.00;;
6763;SDS011;47432;48.760;9.178;2023-03-01T00:26:32;23.13;;;12.17;;
6763;SDS011;47432;48.760;9.178;2023-03-01T00:28:58;22.20;;;12.57;;
6763;SDS011;47432;48.760;9.178;2023-03-01T00:31:25;27.20;;;14.43;;
6763;SDS011;47432;48.760;9.178;2023-03-01T00:33:53;23.23;;;13.30;;
6763;SDS011;47432;48.760;9.178;2023-03-01T00:36:23;23.30;;;14.10;;
6763;SDS011;47432;48.760;9.178;2023-03-01T00:38:49;26.47;;;13.00;;
6763;SDS011;47432;48.760;9.178;2023-03-01T00:41:18;24.00;;;13.47;;
6763;SDS011;47432;48.760;9.178;2023-03-01T00:43:49;24.80;;;13.53;;
6763;SDS011;47432;48.760;9.178;2023-03-01T00:46:17;30.30;;;14.13;;
6763;SDS011;47432;48.760;9.178;2023-03-01T00:48:43;24.67;;;13.00;;
6763;SDS011;47432;48.760;9.178;2023-03-01T00:53:39;25.60;;;13.77;;
6763;SDS011;47432;48.760;9.178;2023-03-01T00:56:05;27.93;;;14.87;;
6763;SDS011;47432;48.760;9.178;2023-03-01T00:58:35;29.40;;;13.40;;
6763;SDS011;47432;48.760;9.178;2023-03-01T01:01:07;24.57;;;13.13;;
6763;SDS011;47432;48.760;9.178;2023-03-01T01:03:41;24.73;;;12.93;;
6763;SDS011;47432;48.760;9.178;2023-03-01T01:06:12;28.20;;;13.40;;
6763;SDS011;47432;48.760;9.178;2023-03-01T01:08:38;27.03;;;13.47;;
6763;SDS011;47432;48.760;9.178;2023-03-01T01:11:04;25.47;;;13.67;;
6763;SDS011;47432;48.760;9.178;2023-03-01T01:13:30;24.10;;;13.47;;
6763;SDS011;47432;48.760;9.178;2023-03-01T01:16:00;28.20;;;14.63;;
6763;SDS011;47432;48.760;9.178;2023-03-01T01:18:26;27.73;;;13.83;;
6763;SDS011;47432;48.760;9.178;2023-03-01T01:20:55;30.63;;;14.63;;
6763;SDS011;47432;48.760;9.178;2023-03-01T01:23:21;28.07;;;15.27;;
6763;SDS011;47432;48.760;9.178;2023-03-01T01:25:49;24.93;;;12.77;;
6763;SDS011;47432;48.760;9.178;2023-03-01T01:28:15;22.70;;;12.37;;
6763;SDS011;47432;48.760;9.178;2023-03-01T01:30:42;27.90;;;13.50;;
6763;SDS011;47432;48.760;9.178;2023-03-01T01:33:08;26.37;;;14.47;;
6763;SDS011;47432;48.760;9.178;2023-03-01T01:35:33;24.70;;;14.13;;
6763;SDS011;47432;48.760;9.178;2023-03-01T01:37:59;29.23;;;15.40;;
6763;SDS011;47432;48.760;9.178;2023-03-01T01:40:25;23.40;;;13.47;;
6763;SDS011;47432;48.760;9.178;2023-03-01T01:42:51;26.73;;;12.83;;
6763;SDS011;47432;48.760;9.178;2023-03-01T01:47:53;28.67;;;15.60;;
6763;SDS011;47432;48.760;9.178;2023-03-01T01:50:20;24.90;;;13.10;;
6763;SDS011;47432;48.760;9.178;2023-03-01T01:52:46;28.17;;;14.23;;
6763;SDS011;47432;48.760;9.178;2023-03-01T01:55:15;27.20;;;15.07;;
6763;SDS011;47432;48.760;9.178;2023-03-01T01:57:46;25.00;;;12.73;;
6763;SDS011;47432;48.760;9.178;2023-03-01T02:00:18;27.03;;;14.57;;
6763;SDS011;47432;48.760;9.178;2023-03-01T02:02:45;24.70;;;13.93;;
6763;SDS011;47432;48.760;9.178;2023-03-01T02:07:45;30.80;;;13.43;;
6763;SDS011;47432;48.760;9.178;2023-03-01T02:10:12;26.90;;;14.10;;
6763;SDS011;47432;48.760;9.178;2023-03-01T02:12:40;25.03;;;14.60;;
6763;SDS011;47432;48.760;9.178;2023-03-01T02:15:07;31.63;;;15.73;;
6763;SDS011;47432;48.760;9.178;2023-03-01T02:17:33;27.43;;;14.43;;
6763;SDS011;47432;48.760;9.178;2023-03-01T02:22:32;26.23;;;14.17;;
6763;SDS011;47432;48.760;9.178;2023-03-01T02:30:15;23.27;;;13.47;;
6763;SDS011;47432;48.760;9.178;2023-03-01T02:32:41;26.83;;;13.37;;
6763;SDS011;47432;48.760;9.178;2023-03-01T02:35:08;26.37;;;15.07;;
6763;SDS011;47432;48.760;9.178;2023-03-01T02:37:35;28.97;;;16.17;;
6763;SDS011;47432;48.760;9.178;2023-03-01T02:40:02;27.70;;;14.80;;
6763;SDS011;47432;48.760;9.178;2023-03-01T02:42:33;28.57;;;14.70;;
6763;SDS011;47432;48.760;9.178;2023-03-01T02:45:01;29.17;;;15.67;;
6763;SDS011;47432;48.760;9.178;2023-03-01T02:47:27;26.63;;;13.67;;
6763;SDS011;47432;48.760;9.178;2023-03-01T02:49:53;27.37;;;14.83;;
6763;SDS011;47432;48.760;9.178;2023-03-01T02:57:26;27.00;;;13.60;;
6763;SDS011;47432;48.760;9.178;2023-03-01T02:59:54;26.90;;;14.80;;
6763;SDS011;47432;48.760;9.178;2023-03-01T03:02:21;26.43;;;15.07;;
6763;SDS011;47432;48.760;9.178;2023-03-01T03:05:01;25.03;;;13.00;;
6763;SDS011;47432;48.760;9.178;2023-03-01T03:07:39;25.40;;;14.00;;
6763;SDS011;47432;48.760;9.178;2023-03-01T03:10:07;26.87;;;14.33;;
6763;SDS011;47432;48.760;9.178;2023-03-01T03:12:36;27.30;;;13.43;;
6763;SDS011;47432;48.760;9.178;2023-03-01T03:15:03;27.60;;;14.43;;
6763;SDS011;47432;48.760;9.178;2023-03-01T03:17:33;26.97;;;15.43;;
6763;SDS011;47432;48.760;9.178;2023-03-01T03:19:59;27.20;;;14.40;;
6763;SDS011;47432;48.760;9.178;2023-03-01T03:22:28;32.00;;;16.30;;
6763;SDS011;47432;48.760;9.178;2023-03-01T03:24:54;24.93;;;13.83;;
6763;SDS011;47432;48.760;9.178;2023-03-01T03:27:20;24.60;;;13.63;;
6763;SDS011;47432;48.760;9.178;2023-03-01T03:29:46;23.10;;;13.73;;
6763;SDS011;47432;48.760;9.178;2023-03-01T03:32:14;28.73;;;15.60;;
6763;SDS011;47432;48.760;9.178;2023-03-01T03:34:40;27.57;;;14.07;;
6763;SDS011;47432;48.760;9.178;2023-03-01T03:37:06;30.40;;;16.50;;
6763;SDS011;47432;48.760;9.178;2023-03-01T03:39:52;29.27;;;15.23;;
6763;SDS011;47432;48.760;9.178;2023-03-01T03:42:21;29.10;;;15.10;;
6763;SDS011;47432;48.760;9.178;2023-03-01T03:44:49;32.33;;;17.33;;
6763;SDS011;47432;48.760;9.178;2023-03-01T03:47:15;28.40;;;15.07;;
6763;SDS011;47432;48.760;9.178;2023-03-01T03:49:41;28.40;;;15.87;;
6763;SDS011;47432;48.760;9.178;2023-03-01T03:52:07;32.20;;;15.40;;
6763;SDS011;47432;48.760;9.178;2023-03-01T03:54:38;26.70;;;14.30;;
6763;SDS011;47432;48.760;9.178;2023-03-01T03:57:05;27.60;;;14.40;;
6763;SDS011;47432;48.760;9.178;2023-03-01T03:59:31;28.70;;;15.83;;
6763;SDS011;47432;48.760;9.178;2023-03-01T04:01:56;25.87;;;15.13;;
6763;SDS011;47432;48.760;9.178;2023-03-01T04:04:22;28.30;;;15.33;;
6763;SDS011;47432;48.760;9.178;2023-03-01T04:06:50;30.00;;;15.27;;
6763;SDS011;47432;48.760;9.178;2023-03-01T04:09:19;27.93;;;14.70;;
6763;SDS011;47432;48.760;9.178;2023-03-01T04:11:45;28.63;;;15.77;;
6763;SDS011;47432;48.760;9.178;2023-03-01T04:14:11;26.30;;;15.13;;
6763;SDS011;47432;48.760;9.178;2023-03-01T04:16:39;26.93;;;14.70;;
6763;SDS011;47432;48.760;9.178;2023-03-01T04:19:05;26.17;;;15.27;;
6763;SDS011;47432;48.760;9.178;2023-03-01T04:21:31;29.60;;;15.50;;
6763;SDS011;47432;48.760;9.178;2023-03-01T04:23:57;27.43;;;15.13;;
6763;SDS011;47432;48.760;9.178;2023-03-01T04:26:23;27.77;;;16.37;;
6763;SDS011;47432;48.760;9.178;2023-03-01T04:28:49;29.80;;;15.40;;
6763;SDS011;47432;48.760;9.178;2023-03-01T04:31:18;27.70;;;15.63;;
6763;SDS011;47432;48.760;9.178;2023-03-01T04:33:46;26.17;;;13.90;;
6763;SDS011;47432;48.760;9.178;2023-03-01T04:36:13;30.37;;;15.47;;
6763;SDS011;47432;48.760;9.178;2023-03-01T04:38:40;27.77;;;15.30;;
6763;SDS011;47432;48.760;9.178;2023-03-01T04:41:07;31.10;;;16.70;;
6763;SDS011;47432;48.760;9.178;2023-03-01T04:43:34;25.70;;;14.90;;
6763;SDS011;47432;48.760;9.178;2023-03-01T04:46:04;37.07;;;24.00;;
6763;SDS011;47432;48.760;9.178;2023-03-01T04:48:31;27.30;;;15.90;;
6763;SDS011;47432;48.760;9.178;2023-03-01T04:50:59;28.73;;;15.53;;
6763;SDS011;47432;48.760;9.178;2023-03-01T04:53:28;26.70;;;15.67;;
6763;SDS011;47432;48.760;9.178;2023-03-01T04:55:55;28.00;;;15.23;;
6763;SDS011;47432;48.760;9.178;2023-03-01T04:58:25;27.17;;;14.53;;
6763;SDS011;47432;48.760;9.178;2023-03-01T05:00:51;26.00;;;15.10;;
6763;SDS011;47432;48.760;9.178;2023-03-01T05:03:17;30.90;;;16.03;;
6763;SDS011;47432;48.760;9.178;2023-03-01T05:05:44;28.87;;;15.00;;
6763;SDS011;47432;48.760;9.178;2023-03-01T05:08:11;28.57;;;16.80;;
6763;SDS011;47432;48.760;9.178;2023-03-01T05:10:42;31.53;;;15.27;;
6763;SDS011;47432;48.760;9.178;2023-03-01T05:13:08;26.33;;;15.00;;
6763;SDS011;47432;48.760;9.178;2023-03-01T05:15:34;29.73;;;16.50;;
6763;SDS011;47432;48.760;9.178;2023-03-01T05:18:01;29.73;;;16.00;;
6763;SDS011;47432;48.760;9.178;2023-03-01T05:20:28;29.83;;;14.87;;
6763;SDS011;47432;48.760;9.178;2023-03-01T05:22:56;27.57;;;14.60;;
6763;SDS011;47432;48.760;9.178;2023-03-01T05:25:31;28.57;;;15.47;;
6763;SDS011;47432;48.760;9.178;2023-03-01T05:27:58;31.00;;;15.90;;
6763;SDS011;47432;48.760;9.178;2023-03-01T05:30:24;24.57;;;14.40;;
6763;SDS011;47432;48.760;9.178;2023-03-01T05:32:52;28.83;;;15.27;;
6763;SDS011;47432;48.760;9.178;2023-03-01T05:35:20;34.23;;;17.37;;
6763;SDS011;47432;48.760;9.178;2023-03-01T05:37:47;29.63;;;15.80;;
6763;SDS011;47432;48.760;9.178;2023-03-01T05:40:15;30.40;;;15.93;;
6763;SDS011;47432;48.760;9.178;2023-03-01T05:45:11;30.87;;;16.70;;
6763;SDS011;47432;48.760;9.178;2023-03-01T05:47:37;30.63;;;16.23;;
6763;SDS011;47432;48.760;9.178;2023-03-01T05:50:04;25.60;;;14.40;;
6763;SDS011;47432;48.760;9.178;2023-03-01T05:52:32;28.80;;;15.40;;
6763;SDS011;47432;48.760;9.178;2023-03-01T05:54:58;31.80;;;16.90;;
6763;SDS011;47432;48.760;9.178;2023-03-01T05:57:24;31.47;;;16.73;;
6763;SDS011;47432;48.760;9.178;2023-03-01T05:59:50;25.93;;;15.27;;
6763;SDS011;47432;48.760;9.178;2023-03-01T06:02:16;26.10;;;15.07;;
6763;SDS011;47432;48.760;9.178;2023-03-01T06:04:43;26.40;;;15.97;;
6763;SDS011;47432;48.760;9.178;2023-03-01T06:07:11;28.13;;;16.50;;
6763;SDS011;47432;48.760;9.178;2023-03-01T06:09:37;29.47;;;17.03;;
6763;SDS011;47432;48.760;9.178;2023-03-01T06:12:05;30.13;;;16.30;;
6763;SDS011;47432;48.760;9.178;2023-03-01T06:14:31;31.77;;;15.73;;
6763;SDS011;47432;48.760;9.178;2023-03-01T06:17:00;28.93;;;16.50;;
6763;SDS011;47432;48.760;9.178;2023-03-01T06:19:26;29.23;;;16.90;;
6763;SDS011;47432;48.760;9.178;2023-03-01T06:21:54;25.60;;;14.30;;
6763;SDS011;47432;48.760;9.178;2023-03-01T06:24:20;31.40;;;15.87;;
6763;SDS011;47432;48.760;9.178;2023-03-01T06:26:48;31.10;;;17.10;;
6763;SDS011;47432;48.760;9.178;2023-03-01T06:29:14;32.63;;;16.77;;
6763;SDS011;47432;48.760;9.178;2023-03-01T06:31:40;30.27;;;16.50;;
6763;SDS011;47432;48.760;9.178;2023-03-01T06:34:06;28.63;;;16.40;;
6763;SDS011;47432;48.760;9.178;2023-03-01T06:36:32;31.07;;;16.90;;
6763;SDS011;47432;48.760;9.178;2023-03-01T06:38:58;33.83;;;17.10;;
6763;SDS011;47432;48.760;9.178;2023-03-01T06:41:24;28.10;;;15.03;;
6763;SDS011;47432;48.760;9.178;2023-03-01T06:43:50;30.67;;;17.37;;
6763;SDS011;47432;48.760;9.178;2023-03-01T06:46:17;28.23;;;15.57;;
6763;SDS011;47432;48.760;9.178;2023-03-01T06:48:43;29.67;;;17.50;;
6763;SDS011;47432;48.760;9.178;2023-03-01T06:51:09;30.73;;;16.87;;
6763;SDS011;47432;48.760;9.178;2023-03-01T06:53:35;29.20;;;16.00;;
6763;SDS011;47432;48.760;9.178;2023-03-01T06:56:01;29.90;;;15.67;;
6763;SDS011;47432;48.760;9.178;2023-03-01T06:58:27;36.27;;;17.50;;
6763;SDS011;47432;48.760;9.178;2023-03-01T07:00:53;31.03;;;16.03;;
6763;SDS011;47432;48.760;9.178;2023-03-01T07:03:19;31.97;;;18.30;;
6763;SDS011;47432;48.760;9.178;2023-03-01T07:05:45;27.90;;;15.40;;
6763;SDS011;47432;48.760;9.178;2023-03-01T07:08:11;30.10;;;16.70;;
6763;SDS011;47432;48.760;9.178;2023-03-01T07:10:37;30.17;;;16.07;;
6763;SDS011;47432;48.760;9.178;2023-03-01T07:13:05;33.00;;;18.00;;
6763;SDS011;47432;48.760;9.178;2023-03-01T07:15:31;31.83;;;16.57;;
6763;SDS011;47432;48.760;9.178;2023-03-01T07:17:58;31.30;;;16.63;;
6763;SDS011;47432;48.760;9.178;2023-03-01T07:20:23;30.67;;;16.20;;
6763;SDS011;47432;48.760;9.178;2023-03-01T07:22:52;37.33;;;18.60;;
6763;SDS011;47432;48.760;9.178;2023-03-01T07:25:23;31.37;;;17.43;;
6763;SDS011;47432;48.760;9.178;2023-03-01T07:27:52;32.73;;;17.30;;
6763;SDS011;47432;48.760;9.178;2023-03-01T07:30:18;31.57;;;16.97;;
6763;SDS011;47432;48.760;9.178;2023-03-01T07:32:44;34.77;;;18.10;;
6763;SDS011;47432;48.760;9.178;2023-03-01T07:35:10;44.07;;;19.73;;
6763;SDS011;47432;48.760;9.178;2023-03-01T07:37:36;31.03;;;16.20;;
6763;SDS011;47432;48.760;9.178;2023-03-01T07:40:05;35.43;;;17.70;;
6763;SDS011;47432;48.760;9.178;2023-03-01T07:42:32;31.10;;;17.10;;
6763;SDS011;47432;48.760;9.178;2023-03-01T07:44:58;29.87;;;18.23;;
6763;SDS011;47432;48.760;9.178;2023-03-01T07:47:24;32.10;;;17.67;;
6763;SDS011;47432;48.760;9.178;2023-03-01T07:49:50;31.87;;;17.43;;
6763;SDS011;47432;48.760;9.178;2023-03-01T07:52:16;34.10;;;17.93;;
6763;SDS011;47432;48.760;9.178;2023-03-01T07:54:42;30.60;;;17.70;;
6763;SDS011;47432;48.760;9.178;2023-03-01T07:57:09;30.93;;;17.27;;
6763;SDS011;47432;48.760;9.178;2023-03-01T07:59:35;36.40;;;19.10;;
6763;SDS011;47432;48.760;9.178;2023-03-01T08:02:02;30.53;;;17.40;;
6763;SDS011;47432;48.760;9.178;2023-03-01T08:04:28;31.90;;;16.63;;
6763;SDS011;47432;48.760;9.178;2023-03-01T08:06:54;37.27;;;17.90;;
6763;SDS011;47432;48.760;9.178;2023-03-01T08:09:20;34.13;;;18.70;;
6763;SDS011;47432;48.760;9.178;2023-03-01T08:11:46;36.40;;;18.00;;
6763;SDS011;47432;48.760;9.178;2023-03-01T08:14:13;31.90;;;18.23;;
6763;SDS011;47432;48.760;9.178;2023-03-01T08:16:39;32.20;;;17.60;;
6763;SDS011;47432;48.760;9.178;2023-03-01T08:19:05;34.00;;;18.30;;
6763;SDS011;47432;48.760;9.178;2023-03-01T08:21:35;38.67;;;19.23;;
6763;SDS011;47432;48.760;9.178;2023-03-01T08:24:02;33.70;;;18.43;;
6763;SDS011;47432;48.760;9.178;2023-03-01T08:26:29;31.93;;;17.97;;
6763;SDS011;47432;48.760;9.178;2023-03-01T08:28:55;33.30;;;18.57;;
6763;SDS011;47432;48.760;9.178;2023-03-01T08:31:22;30.70;;;16.30;;
6763;SDS011;47432;48.760;9.178;2023-03-01T08:33:54;32.57;;;17.07;;
6763;SDS011;47432;48.760;9.178;2023-03-01T08:36:22;35.63;;;17.40;;
6763;SDS011;47432;48.760;9.178;2023-03-01T08:38:49;34.10;;;18.80;;
6763;SDS011;47432;48.760;9.178;2023-03-01T08:41:15;35.73;;;18.67;;
6763;SDS011;47432;48.760;9.178;2023-03-01T08:43:42;35.90;;;19.07;;
6763;SDS011;47432;48.760;9.178;2023-03-01T08:46:10;29.67;;;16.57;;
6763;SDS011;47432;48.760;9.178;2023-03-01T08:48:37;28.10;;;16.73;;
6763;SDS011;47432;48.760;9.178;2023-03-01T08:51:11;35.80;;;17.50;;
6763;SDS011;47432;48.760;9.178;2023-03-01T08:53:38;38.87;;;20.37;;
6763;SDS011;47432;48.760;9.178;2023-03-01T08:56:10;28.27;;;16.37;;
6763;SDS011;47432;48.760;9.178;2023-03-01T08:58:36;37.70;;;19.47;;
6763;SDS011;47432;48.760;9.178;2023-03-01T09:01:08;32.03;;;16.60;;
6763;SDS011;47432;48.760;9.178;2023-03-01T09:03:35;36.10;;;19.97;;
6763;SDS011;47432;48.760;9.178;2023-03-01T09:06:01;38.43;;;23.03;;
6763;SDS011;47432;48.760;9.178;2023-03-01T09:08:28;37.50;;;19.10;;
6763;SDS011;47432;48.760;9.178;2023-03-01T09:10:58;31.30;;;17.30;;
6763;SDS011;47432;48.760;9.178;2023-03-01T09:13:28;40.53;;;20.80;;
6763;SDS011;47432;48.760;9.178;2023-03-01T09:15:56;40.73;;;22.83;;
6763;SDS011;47432;48.760;9.178;2023-03-01T09:18:23;30.07;;;17.47;;
6763;SDS011;47432;48.760;9.178;2023-03-01T09:20:49;32.97;;;19.13;;
6763;SDS011;47432;48.760;9.178;2023-03-01T09:23:19;32.50;;;16.93;;
6763;SDS011;47432;48.760;9.178;2023-03-01T09:25:46;39.23;;;16.60;;
6763;SDS011;47432;48.760;9.178;2023-03-01T09:28:14;38.50;;;20.40;;
6763;SDS011;47432;48.760;9.178;2023-03-01T09:30:40;35.23;;;19.20;;
6763;SDS011;47432;48.760;9.178;2023-03-01T09:33:06;29.87;;;16.63;;
6763;SDS011;47432;48.760;9.178;2023-03-01T09:35:39;34.73;;;18.33;;
6763;SDS011;47432;48.760;9.178;2023-03-01T09:38:12;29.67;;;15.90;;
6763;SDS011;47432;48.760;9.178;2023-03-01T09:40:44;32.93;;;17.63;;
6763;SDS011;47432;48.760;9.178;2023-03-01T09:46:02;33.77;;;19.20;;
6763;SDS011;47432;48.760;9.178;2023-03-01T09:48:31;31.53;;;17.03;;
6763;SDS011;47432;48.760;9.178;2023-03-01T09:51:02;33.63;;;16.93;;
6763;SDS011;47432;48.760;9.178;2023-03-01T09:53:40;35.90;;;19.97;;
6763;SDS011;47432;48.760;9.178;2023-03-01T09:56:22;33.20;;;18.33;;
6763;SDS011;47432;48.760;9.178;2023-03-01T10:01:55;35.33;;;18.70;;
6763;SDS011;47432;48.760;9.178;2023-03-01T10:04:45;27.70;;;17.40;;
6763;SDS011;47432;48.760;9.178;2023-03-01T10:10:08;31.60;;;17.17;;
6763;SDS011;47432;48.760;9.178;2023-03-01T10:12:44;28.80;;;16.83;;
6763;SDS011;47432;48.760;9.178;2023-03-01T10:15:14;35.50;;;18.47;;
6763;SDS011;47432;48.760;9.178;2023-03-01T10:17:46;27.00;;;14.43;;
6763;SDS011;47432;48.760;9.178;2023-03-01T10:20:20;25.37;;;13.80;;
6763;SDS011;47432;48.760;9.178;2023-03-01T10:22:51;31.70;;;16.00;;
6763;SDS011;47432;48.760;9.178;2023-03-01T10:31:19;36.80;;;17.33;;
6763;SDS011;47432;48.760;9.178;2023-03-01T10:33:53;26.60;;;16.17;;
6763;SDS011;47432;48.760;9.178;2023-03-01T10:36:21;29.07;;;15.60;;
6763;SDS011;47432;48.760;9.178;2023-03-01T10:38:52;31.23;;;16.83;;
6763;SDS011;47432;48.760;9.178;2023-03-01T10:41:23;31.80;;;17.27;;
6763;SDS011;47432;48.760;9.178;2023-03-01T10:43:59;33.77;;;18.10;;
6763;SDS011;47432;48.760;9.178;2023-03-01T10:49:16;27.53;;;16.73;;
6763;SDS011;47432;48.760;9.178;2023-03-01T10:51:45;32.70;;;17.77;;
6763;SDS011;47432;48.760;9.178;2023-03-01T10:54:16;28.20;;;15.20;;
6763;SDS011;47432;48.760;9.178;2023-03-01T10:57:22;28.17;;;15.80;;
6763;SDS011;47432;48.760;9.178;2023-03-01T10:59:47;29.30;;;17.20;;
6763;SDS011;47432;48.760;9.178;2023-03-01T11:02:45;29.40;;;16.13;;
6763;SDS011;47432;48.760;9.178;2023-03-01T11:05:24;32.77;;;16.97;;
6763;SDS011;47432;48.760;9.178;2023-03-01T11:07:57;30.30;;;16.80;;
6763;SDS011;47432;48.760;9.178;2023-03-01T11:13:16;28.40;;;15.00;;
6763;SDS011;47432;48.760;9.178;2023-03-01T11:15:58;28.90;;;16.30;;
6763;SDS011;47432;48.760;9.178;2023-03-01T11:18:29;26.20;;;14.50;;
6763;SDS011;47432;48.760;9.178;2023-03-01T11:20:55;28.33;;;15.50;;
6763;SDS011;47432;48.760;9.178;2023-03-01T11:23:25;30.03;;;16.43;;
6763;SDS011;47432;48.760;9.178;2023-03-01T11:25:58;27.00;;;15.53;;
6763;SDS011;47432;48.760;9.178;2023-03-01T11:28:33;30.67;;;16.53;;
6763;SDS011;47432;48.760;9.178;2023-03-01T11:31:05;30.93;;;15.43;;
6763;SDS011;47432;48.760;9.178;2023-03-01T11:34:40;27.80;;;13.63;;
6763;SDS011;47432;48.760;9.178;2023-03-01T11:36:52;27.50;;;16.23;;
6763;SDS011;47432;48.760;9.178;2023-03-01T11:39:31;28.90;;;16.67;;
6763;SDS011;47432;48.760;9.178;2023-03-01T11:42:21;25.10;;;15.80;;
6763;SDS011;47432;48.760;9.178;2023-03-01T11:45:06;29.13;;;16.27;;
6763;SDS011;47432;48.760;9.178;2023-03-01T12:01:19;29.70;;;17.50;;
6763;SDS011;47432;48.760;9.178;2023-03-01T12:06:56;26.47;;;15.53;;
6763;SDS011;47432;48.760;9.178;2023-03-01T12:12:37;27.57;;;15.53;;
6763;SDS011;47432;48.760;9.178;2023-03-01T12:15:44;28.80;;;15.80;;
6763;SDS011;47432;48.760;9.178;2023-03-01T12:26:44;26.83;;;14.90;;
6763;SDS011;47432;48.760;9.178;2023-03-01T12:31:48;22.53;;;12.23;;
6763;SDS011;47432;48.760;9.178;2023-03-01T12:36:56;28.07;;;16.10;;
6763;SDS011;47432;48.760;9.178;2023-03-01T12:39:32;24.30;;;14.73;;
6763;SDS011;47432;48.760;9.178;2023-03-01T12:50:04;26.00;;;13.90;;
6763;SDS011;47432;48.760;9.178;2023-03-01T12:52:49;23.80;;;13.67;;
6763;SDS011;47432;48.760;9.178;2023-03-01T12:55:23;24.20;;;14.37;;
6763;SDS011;47432;48.760;9.178;2023-03-01T13:00:44;31.23;;;14.00;;
6763;SDS011;47432;48.760;9.178;2023-03-01T13:03:32;27.27;;;15.40;;
6763;SDS011;47432;48.760;9.178;2023-03-01T13:06:32;24.50;;;14.00;;
6763;SDS011;47432;48.760;9.178;2023-03-01T13:12:14;31.40;;;14.37;;
6763;SDS011;47432;48.760;9.178;2023-03-01T13:17:57;22.53;;;13.30;;
6763;SDS011;47432;48.760;9.178;2023-03-01T13:20:30;23.40;;;13.40;;
6763;SDS011;47432;48.760;9.178;2023-03-01T13:23:13;25.10;;;13.37;;
6763;SDS011;47432;48.760;9.178;2023-03-01T13:39:27;21.60;;;12.53;;
6763;SDS011;47432;48.760;9.178;2023-03-01T13:41:58;18.83;;;11.77;;
6763;SDS011;47432;48.760;9.178;2023-03-01T13:44:35;26.73;;;14.70;;
6763;SDS011;47432;48.760;9.178;2023-03-01T13:49:42;22.13;;;13.17;;
6763;SDS011;47432;48.760;9.178;2023-03-01T13:52:43;25.47;;;15.10;;
6763;SDS011;47432;48.760;9.178;2023-03-01T13:58:01;22.47;;;13.93;;
6763;SDS011;47432;48.760;9.178;2023-03-01T14:00:54;23.57;;;15.33;;
6763;SDS011;47432;48.760;9.178;2023-03-01T14:03:31;29.13;;;16.83;;
6763;SDS011;47432;48.760;9.178;2023-03-01T14:06:03;26.40;;;15.90;;
6763;SDS011;47432;48.760;9.178;2023-03-01T14:08:43;25.47;;;16.40;;
6763;SDS011;47432;48.760;9.178;2023-03-01T14:16:39;33.77;;;17.73;;
6763;SDS011;47432;48.760;9.178;2023-03-01T14:19:16;22.67;;;13.30;;
6763;SDS011;47432;48.760;9.178;2023-03-01T14:21:43;27.63;;;17.40;;
6763;SDS011;47432;48.760;9.178;2023-03-01T14:24:20;23.57;;;15.73;;
6763;SDS011;47432;48.760;9.178;2023-03-01T14:26:47;27.43;;;16.47;;
6763;SDS011;47432;48.760;9.178;2023-03-01T14:29:27;26.67;;;16.70;;
6763;SDS011;47432;48.760;9.178;2023-03-01T14:32:12;27.70;;;16.63;;
6763;SDS011;47432;48.760;9.178;2023-03-01T14:34:44;25.83;;;17.73;;
6763;SDS011;47432;48.760;9.178;2023-03-01T14:37:17;27.00;;;16.80;;
6763;SDS011;47432;48.760;9.178;2023-03-01T14:39:53;31.83;;;17.90;;
6763;SDS011;47432;48.760;9.178;2023-03-01T14:42:20;23.93;;;14.90;;
6763;SDS011;47432;48.760;9.178;2023-03-01T14:44:53;28.37;;;18.17;;
6763;SDS011;47432;48.760;9.178;2023-03-01T14:47:26;27.97;;;16.80;;
6763;SDS011;47432;48.760;9.178;2023-03-01T14:49:56;30.53;;;16.57;;
6763;SDS011;47432;48.760;9.178;2023-03-01T14:52:25;28.70;;;17.63;;
6763;SDS011;47432;48.760;9.178;2023-03-01T14:55:20;27.30;;;18.00;;
6763;SDS011;47432;48.760;9.178;2023-03-01T14:57:53;27.53;;;16.77;;
6763;SDS011;47432;48.760;9.178;2023-03-01T15:00:21;27.33;;;17.63;;
6763;SDS011;47432;48.760;9.178;2023-03-01T15:02:50;26.33;;;15.83;;
6763;SDS011;47432;48.760;9.178;2023-03-01T15:05:18;27.63;;;16.03;;
6763;SDS011;47432;48.760;9.178;2023-03-01T15:07:55;28.20;;;17.33;;
6763;SDS011;47432;48.760;9.178;2023-03-01T15:10:24;27.47;;;15.63;;
6763;SDS011;47432;48.760;9.178;2023-03-01T15:12:52;27.03;;;17.00;;
6763;SDS011;47432;48.760;9.178;2023-03-01T15:15:20;25.67;;;17.30;;
6763;SDS011;47432;48.760;9.178;2023-03-01T15:18:01;26.17;;;16.97;;
6763;SDS011;47432;48.760;9.178;2023-03-01T15:20:32;30.53;;;17.93;;
6763;SDS011;47432;48.760;9.178;2023-03-01T15:23:03;26.30;;;17.07;;
6763;SDS011;47432;48.760;9.178;2023-03-01T15:25:34;23.57;;;16.23;;
6763;SDS011;47432;48.760;9.178;2023-03-01T15:28:03;32.27;;;18.17;;
6763;SDS011;47432;48.760;9.178;2023-03-01T15:30:31;26.10;;;17.60;;
6763;SDS011;47432;48.760;9.178;2023-03-01T15:33:19;25.20;;;17.30;;
6763;SDS011;47432;48.760;9.178;2023-03-01T15:35:50;26.43;;;17.13;;
6763;SDS011;47432;48.760;9.178;2023-03-01T15:38:36;27.70;;;16.17;;
6763;SDS011;47432;48.760;9.178;2023-03-01T15:41:32;29.00;;;17.33;;
6763;SDS011;47432;48.760;9.178;2023-03-01T15:46:56;27.20;;;17.63;;
6763;SDS011;47432;48.760;9.178;2023-03-01T15:49:25;26.73;;;16.40;;
6763;SDS011;47432;48.760;9.178;2023-03-01T15:52:02;25.40;;;15.90;;
6763;SDS011;47432;48.760;9.178;2023-03-01T15:54:32;27.90;;;17.43;;
6763;SDS011;47432;48.760;9.178;2023-03-01T15:56:58;29.90;;;16.93;;
6763;SDS011;47432;48.760;9.178;2023-03-01T15:59:25;29.20;;;15.70;;
6763;SDS011;47432;48.760;9.178;2023-03-01T16:01:51;27.17;;;15.20;;
6763;SDS011;47432;48.760;9.178;2023-03-01T16:04:18;27.50;;;16.10;;
6763;SDS011;47432;48.760;9.178;2023-03-01T16:06:48;27.53;;;15.90;;
6763;SDS011;47432;48.760;9.178;2023-03-01T16:09:19;28.30;;;17.50;;
6763;SDS011;47432;48.760;9.178;2023-03-01T16:11:52;31.10;;;18.70;;
6763;SDS011;47432;48.760;9.178;2023-03-01T16:14:18;29.17;;;17.30;;
6763;SDS011;47432;48.760;9.178;2023-03-01T16:16:45;28.97;;;18.03;;
6763;SDS011;47432;48.760;9.178;2023-03-01T16:19:14;29.30;;;16.27;;
6763;SDS011;47432;48.760;9.178;2023-03-01T16:21:41;29.97;;;16.53;;
6763;SDS011;47432;48.760;9.178;2023-03-01T16:24:11;29.20;;;15.70;;
6763;SDS011;47432;48.760;9.178;2023-03-01T16:26:38;25.83;;;13.50;;
6763;SDS011;47432;48.760;9.178;2023-03-01T16:29:04;33.00;;;18.70;;
6763;SDS011;47432;48.760;9.178;2023-03-01T16:31:30;29.40;;;16.30;;
6763;SDS011;47432;48.760;9.178;2023-03-01T16:33:58;28.63;;;16.43;;
6763;SDS011;47432;48.760;9.178;2023-03-01T16:36:25;32.53;;;16.97;;
6763;SDS011;47432;48.760;9.178;2023-03-01T16:38:53;27.13;;;15.60;;
6763;SDS011;47432;48.760;9.178;2023-03-01T16:41:21;30.10;;;17.13;;
6763;SDS011;47432;48.760;9.178;2023-03-01T16:43:48;28.23;;;15.60;;
6763;SDS011;47432;48.760;9.178;2023-03-01T16:46:17;27.87;;;15.50;;
6763;SDS011;47432;48.760;9.178;2023-03-01T16:48:48;28.23;;;15.90;;
6763;SDS011;47432;48.760;9.178;2023-03-01T16:51:15;30.43;;;15.60;;